createdAt,value
2019-01-20T00:05:02.972Z,7.03
2019-01-20T00:10:07.053Z,6.33
2019-01-20T00:15:11.006Z,6.67
2019-01-20T00:20:14.790Z,6.80
2019-01-20T00:25:18.574Z,6.00
2019-01-20T00:30:22.325Z,6.97
2019-01-20T00:35:26.066Z,6.60
2019-01-20T00:40:29.756Z,6.80
2019-01-20T00:45:33.447Z,6.37
2019-01-20T00:50:37.111Z,6.53
2019-01-20T00:55:40.809Z,6.63
2019-01-20T01:00:44.490Z,6.60
2019-01-20T01:05:48.178Z,6.53
2019-01-20T01:10:51.969Z,6.30
2019-01-20T01:15:55.685Z,6.13
2019-01-20T01:20:59.360Z,6.27
2019-01-20T01:26:03.103Z,6.17
2019-01-20T01:31:06.797Z,5.67
2019-01-20T01:36:10.904Z,6.30
2019-01-20T01:41:14.578Z,6.00
2019-01-20T01:46:18.504Z,5.20
2019-01-20T01:51:22.205Z,6.10
2019-01-20T01:56:25.930Z,5.43
2019-01-20T02:01:29.692Z,5.40
2019-01-20T02:06:33.386Z,5.87
2019-01-20T02:11:37.081Z,5.00
2019-01-20T02:16:40.923Z,5.47
2019-01-20T02:21:44.598Z,4.43
2019-01-20T02:26:48.294Z,5.13
2019-01-20T02:31:52.098Z,4.93
2019-01-20T02:36:55.900Z,5.10
2019-01-20T02:41:59.560Z,5.13
2019-01-20T02:47:04.110Z,5.37
2019-01-20T02:52:07.807Z,5.17
2019-01-20T02:57:11.490Z,4.90
2019-01-20T03:02:15.208Z,4.70
2019-01-20T03:07:19.043Z,5.07
2019-01-20T03:12:22.741Z,4.67
2019-01-20T03:17:26.438Z,5.53
2019-01-20T03:22:30.292Z,5.50
2019-01-20T03:27:34.004Z,5.07
2019-01-20T03:32:37.726Z,4.73
2019-01-20T03:37:41.429Z,4.50
2019-01-20T03:42:45.196Z,4.90
2019-01-20T03:47:49.511Z,5.87
2019-01-20T03:52:53.213Z,4.73
2019-01-20T03:57:56.887Z,4.43
2019-01-20T04:03:02.432Z,5.13
2019-01-20T04:08:06.185Z,4.77
2019-01-20T04:13:09.892Z,5.30
2019-01-20T04:18:13.648Z,5.33
2019-01-20T04:23:17.325Z,5.40
2019-01-20T04:28:21.093Z,4.87
2019-01-20T04:33:24.863Z,5.13
2019-01-20T04:38:28.655Z,4.80
2019-01-20T04:43:32.328Z,4.33
2019-01-20T04:48:36.217Z,4.40
2019-01-20T04:53:40.580Z,4.25
2019-01-20T04:58:44.276Z,4.97
2019-01-20T05:03:47.974Z,4.93
2019-01-20T05:08:51.784Z,4.53
2019-01-20T05:13:55.537Z,4.67
2019-01-20T05:18:59.246Z,4.80
2019-01-20T05:24:03.732Z,4.80
2019-01-20T05:29:07.475Z,4.67
2019-01-20T05:34:11.173Z,5.17
2019-01-20T05:39:14.896Z,5.03
2019-01-20T05:44:18.944Z,4.90
2019-01-20T05:49:22.663Z,5.00
2019-01-20T05:54:26.478Z,4.13
2019-01-20T05:59:30.166Z,4.50
2019-01-20T06:04:33.860Z,5.10
2019-01-20T06:09:37.629Z,4.87
2019-01-20T06:14:41.390Z,4.87
2019-01-20T06:19:45.125Z,4.73
2019-01-20T06:24:48.809Z,4.77
2019-01-20T06:29:52.520Z,5.10
2019-01-20T06:34:56.220Z,5.07
2019-01-20T06:40:00.004Z,5.30
2019-01-20T06:45:04.415Z,5.17
2019-01-20T06:50:09.431Z,5.50
2019-01-20T06:55:13.136Z,5.53
2019-01-20T07:00:17.910Z,6.37
2019-01-20T07:05:21.627Z,6.33
2019-01-20T07:10:25.348Z,5.70
2019-01-20T07:15:29.140Z,6.33
2019-01-20T07:20:33.603Z,6.10
2019-01-20T07:25:37.298Z,6.37
2019-01-20T07:30:41.047Z,7.47
2019-01-20T07:35:44.718Z,7.10
2019-01-20T07:40:48.414Z,8.27
2019-01-20T07:45:52.105Z,7.70
2019-01-20T07:50:55.936Z,7.90
2019-01-20T07:55:59.631Z,8.03
2019-01-20T08:01:04.198Z,8.98
2019-01-20T08:06:20.135Z,8.23
2019-01-20T08:11:23.868Z,8.58
2019-01-20T08:16:27.797Z,8.33
2019-01-20T08:21:31.598Z,8.27
2019-01-20T08:26:37.531Z,8.20
2019-01-20T08:31:41.265Z,8.63
2019-01-20T08:36:45.094Z,8.83
2019-01-20T08:41:48.778Z,8.53
2019-01-20T08:46:57.023Z,8.27
2019-01-20T08:52:00.704Z,7.93
2019-01-20T08:57:04.421Z,7.77
2019-01-20T09:02:08.303Z,8.27
2019-01-20T09:07:12.089Z,8.20
2019-01-20T09:12:15.796Z,8.85
2019-01-20T09:17:19.566Z,8.03
2019-01-20T09:22:23.351Z,8.70
2019-01-20T09:27:27.437Z,7.93
2019-01-20T09:32:31.186Z,8.03
2019-01-20T09:37:35.072Z,8.27
2019-01-20T09:42:38.824Z,8.83
2019-01-20T09:47:42.612Z,8.07
2019-01-20T09:52:46.334Z,8.27
2019-01-20T09:57:50.077Z,7.93
2019-01-20T10:02:53.854Z,8.55
2019-01-20T10:07:57.559Z,8.83
2019-01-20T10:13:01.811Z,8.53
2019-01-20T10:18:08.649Z,8.83
2019-01-20T10:23:14.322Z,9.17
2019-01-20T10:28:19.363Z,9.37
2019-01-20T10:33:23.133Z,9.20
2019-01-20T10:38:26.856Z,9.53
2019-01-20T10:43:30.654Z,9.55
2019-01-20T10:48:34.480Z,9.73
2019-01-20T10:53:38.168Z,10.67
2019-01-20T10:58:41.954Z,9.60
2019-01-20T11:03:46.960Z,10.17
2019-01-20T11:08:50.785Z,10.50
2019-01-20T11:13:54.495Z,10.27
2019-01-20T11:18:58.277Z,9.47
2019-01-20T11:24:02.256Z,10.87
2019-01-20T11:29:06.028Z,10.17
2019-01-20T11:34:09.881Z,10.97
2019-01-20T11:39:13.907Z,10.17
2019-01-20T11:44:17.680Z,10.43
2019-01-20T11:49:21.452Z,11.17
2019-01-20T11:54:25.297Z,10.07
2019-01-20T11:59:29.064Z,10.05
2019-01-20T12:04:32.892Z,11.40
2019-01-20T12:09:36.575Z,10.82
2019-01-20T12:14:40.349Z,10.93
2019-01-20T12:19:44.142Z,10.80
2019-01-20T12:24:47.863Z,10.83
2019-01-20T12:29:52.099Z,11.93
2019-01-20T12:34:56.017Z,11.03
2019-01-20T12:39:59.862Z,10.63
2019-01-20T12:45:04.905Z,12.27
2019-01-20T12:50:09.739Z,11.20
2019-01-20T12:55:13.718Z,11.27
2019-01-20T13:00:18.056Z,11.63
2019-01-20T13:05:21.880Z,10.13
2019-01-20T13:10:25.601Z,10.57
2019-01-20T13:15:29.447Z,11.43
2019-01-20T13:20:33.344Z,10.60
2019-01-20T13:25:37.565Z,10.57
2019-01-20T13:30:41.357Z,12.07
2019-01-20T13:35:45.176Z,11.73
2019-01-20T13:40:50.725Z,11.93
2019-01-20T13:45:54.459Z,11.40
2019-01-20T13:50:58.217Z,11.13
2019-01-20T13:56:01.973Z,10.43
2019-01-20T14:01:09.617Z,11.70
2019-01-20T14:06:13.525Z,11.07
2019-01-20T14:11:17.281Z,10.63
2019-01-20T14:16:23.369Z,10.82
2019-01-20T14:21:27.190Z,10.85
2019-01-20T14:26:31.040Z,11.37
2019-01-20T14:31:34.879Z,12.03
2019-01-20T14:36:38.841Z,11.80
2019-01-20T14:41:42.641Z,11.67
2019-01-20T14:46:46.394Z,10.97
2019-01-20T14:51:50.153Z,12.13
2019-01-20T14:56:53.881Z,11.23
2019-01-20T15:01:57.745Z,12.43
2019-01-20T15:07:01.569Z,13.50
2019-01-20T15:12:05.356Z,13.47
2019-01-20T15:17:09.153Z,13.70
2019-01-20T15:22:12.949Z,13.33
2019-01-20T15:27:16.663Z,13.60
2019-01-20T15:32:20.435Z,13.43
2019-01-20T15:37:24.189Z,14.67
2019-01-20T15:42:27.961Z,13.23
2019-01-20T15:47:31.661Z,14.70
2019-01-20T15:52:35.369Z,14.33
2019-01-20T15:57:39.167Z,14.87
2019-01-20T16:02:42.957Z,16.87
2019-01-20T16:07:46.670Z,15.80
2019-01-20T16:12:51.275Z,14.43
2019-01-20T16:17:55.588Z,15.50
2019-01-20T16:23:03.084Z,14.07
2019-01-20T16:28:07.825Z,14.87
2019-01-20T16:33:11.681Z,14.93
2019-01-20T16:38:15.486Z,15.53
2019-01-20T16:43:19.199Z,16.67
2019-01-20T16:48:22.942Z,19.00
2019-01-20T16:53:26.888Z,16.93
2019-01-20T16:58:32.944Z,18.57
2019-01-20T17:03:36.739Z,16.40
2019-01-20T17:08:40.444Z,15.87
2019-01-20T17:13:47.474Z,17.03
2019-01-20T17:18:51.195Z,16.47
2019-01-20T17:23:54.952Z,16.07
2019-01-20T17:28:58.701Z,16.83
2019-01-20T17:34:02.531Z,16.00
2019-01-20T17:39:11.886Z,14.27
2019-01-20T17:44:13.404Z,13.27
2019-01-20T17:49:17.183Z,14.50
2019-01-20T17:54:20.879Z,14.33
2019-01-20T17:59:24.673Z,13.87
2019-01-20T18:04:28.483Z,14.90
2019-01-20T18:09:32.193Z,16.50
2019-01-20T18:14:36.034Z,15.53
2019-01-20T18:19:39.749Z,17.07
2019-01-20T18:24:43.479Z,16.57
2019-01-20T18:29:47.401Z,17.07
2019-01-20T18:34:51.185Z,15.67
2019-01-20T18:39:54.932Z,14.73
2019-01-20T18:44:58.864Z,16.33
2019-01-20T18:50:02.557Z,19.43
2019-01-20T18:55:07.077Z,17.80
2019-01-20T19:00:12.548Z,17.13
2019-01-20T19:05:16.345Z,15.73
2019-01-20T19:10:20.039Z,15.47
2019-01-20T19:15:23.916Z,13.50
2019-01-20T19:20:27.726Z,13.23
2019-01-20T19:25:31.629Z,14.17
2019-01-20T19:30:35.819Z,14.43
2019-01-20T19:35:39.570Z,17.10
2019-01-20T19:40:43.286Z,17.00
2019-01-20T19:45:47.054Z,16.90
2019-01-20T19:50:50.799Z,16.00
2019-01-20T19:55:54.540Z,16.53
2019-01-20T20:00:58.300Z,16.80
2019-01-20T20:06:02.096Z,17.17
2019-01-20T20:11:05.823Z,15.30
2019-01-20T20:16:09.557Z,16.47
2019-01-20T20:21:13.297Z,15.47
2019-01-20T20:26:17.022Z,15.37
2019-01-20T20:31:20.776Z,15.17
2019-01-20T20:36:26.010Z,15.87
2019-01-20T20:41:29.968Z,16.03
2019-01-20T20:46:33.709Z,15.90
2019-01-20T20:51:37.433Z,15.53
2019-01-20T20:56:41.504Z,15.63
2019-01-20T21:01:45.234Z,17.20
2019-01-20T21:06:49.175Z,18.53
2019-01-20T21:11:52.932Z,17.77
2019-01-20T21:16:56.688Z,18.53
2019-01-20T21:22:00.453Z,17.70
2019-01-20T21:27:04.171Z,17.67
2019-01-20T21:32:07.919Z,16.93
2019-01-20T21:37:11.707Z,17.15
2019-01-20T21:42:15.399Z,16.53
2019-01-20T21:47:19.207Z,15.63
2019-01-20T21:52:22.983Z,16.70
2019-01-20T21:57:26.708Z,15.57
2019-01-20T22:02:30.498Z,16.27
2019-01-20T22:07:34.189Z,18.13
2019-01-20T22:12:37.913Z,17.90
2019-01-20T22:17:41.646Z,17.47
2019-01-20T22:22:45.471Z,17.60
2019-01-20T22:27:49.163Z,17.93
2019-01-20T22:32:53.206Z,16.50
2019-01-20T22:37:56.990Z,16.87
2019-01-20T22:43:00.775Z,16.80
2019-01-20T22:48:04.915Z,17.53
2019-01-20T22:53:08.999Z,17.30
2019-01-20T22:58:12.702Z,16.77
2019-01-20T23:03:16.778Z,17.83
2019-01-20T23:08:20.516Z,15.97
2019-01-20T23:13:24.270Z,15.87
2019-01-20T23:18:27.988Z,16.50
2019-01-20T23:23:31.713Z,15.67
2019-01-20T23:28:35.518Z,15.67
2019-01-20T23:33:39.287Z,15.93
2019-01-20T23:38:43.012Z,15.50
2019-01-20T23:43:46.719Z,15.57
2019-01-20T23:48:50.493Z,16.63
2019-01-20T23:53:54.205Z,14.93
2019-01-20T23:58:58.082Z,15.60
